Time;durP1;ratioP1;P1;durP2;ratioP2;P2;SDS_P1;SDS_P2;PMS_P1;PMS_P2;Temp;Humidity;BMP_temperature;BMP_pressure;BME280_temperature;BME280_humidity;BME280_pressure;Samples;Min_cycle;Max_cycle;Signal;HPM_P1;HPM_P2
2022/12/29 00:03:35;;;;;;;2.97;2.08;;;9.90;99.90;;;;;;10410095;28;20304;-63
2022/12/29 00:08:41;;;;;;;2.15;1.92;;;10.00;99.90;;;;;;10394752;28;20025;-63
2022/12/29 00:19:03;;;;;;;2.63;2.03;;;10.00;99.90;;;;;;10403083;28;20100;-63
2022/12/29 00:45:27;;;;;;;2.40;2.10;;;10.00;99.90;;;;;;10515425;28;20031;-63
2022/12/29 00:50:28;;;;;;;2.35;1.90;;;10.00;99.90;;;;;;10513837;28;20051;-63
2022/12/29 00:55:28;;;;;;;3.38;2.15;;;10.00;99.90;;;;;;10525062;28;20024;-63
2022/12/29 01:00:29;;;;;;;3.33;2.38;;;10.00;99.90;;;;;;10523663;28;20035;-63
2022/12/29 01:05:29;;;;;;;2.67;2.10;;;10.10;99.90;;;;;;10518160;28;20331;-63
2022/12/29 01:10:30;;;;;;;2.08;1.80;;;10.10;99.90;;;;;;10516769;28;20039;-63
2022/12/29 01:15:31;;;;;;;2.60;2.20;;;10.10;99.90;;;;;;10522749;28;20023;-63
2022/12/29 01:20:31;;;;;;;4.03;2.03;;;10.10;99.90;;;;;;10527522;28;20024;-63
2022/12/29 01:25:32;;;;;;;3.80;1.85;;;10.10;99.90;;;;;;10517855;28;20072;-63
2022/12/29 01:30:32;;;;;;;3.38;2.00;;;10.10;99.90;;;;;;10522463;28;20032;-63
2022/12/29 01:35:33;;;;;;;3.40;1.98;;;10.10;99.90;;;;;;10523164;28;20020;-63
2022/12/29 01:40:34;;;;;;;2.45;1.80;;;10.10;99.90;;;;;;10524733;28;20486;-63
2022/12/29 01:45:34;;;;;;;2.03;1.73;;;10.10;99.90;;;;;;10522032;28;20027;-63
2022/12/29 01:50:50;;;;;;;2.45;1.77;;;10.10;99.90;;;;;;10506873;28;20020;-63
2022/12/29 01:55:55;;;;;;;2.47;1.92;;;10.10;99.90;;;;;;10514632;28;20016;-63
2022/12/29 02:00:55;;;;;;;2.75;2.08;;;10.20;99.90;;;;;;10512497;28;20017;-64
2022/12/29 02:06:07;;;;;;;2.38;1.80;;;10.20;99.90;;;;;;10502805;28;20024;-64
2022/12/29 02:11:07;;;;;;;2.47;1.80;;;10.20;99.90;;;;;;10507340;28;20028;-63
2022/12/29 02:16:26;;;;;;;2.88;1.85;;;10.20;99.90;;;;;;10516108;28;20046;-64
2022/12/29 02:21:56;;;;;;;3.30;2.50;;;10.20;99.90;;;;;;10514760;28;20042;-63
2022/12/29 02:27:28;;;;;;;2.30;1.88;;;10.20;99.90;;;;;;10519048;28;20038;-64
2022/12/29 02:32:58;;;;;;;2.92;1.70;;;10.20;99.90;;;;;;10508707;28;20342;-63
2022/12/29 02:38:12;;;;;;;3.53;2.17;;;10.20;99.90;;;;;;10505916;28;20038;-63
2022/12/29 02:43:34;;;;;;;2.55;1.90;;;10.20;99.90;;;;;;10517736;28;20110;-63
2022/12/29 02:48:42;;;;;;;1.98;1.67;;;10.20;99.90;;;;;;10511557;28;20059;-63
2022/12/29 02:59:03;;;;;;;1.88;1.58;;;10.20;99.90;;;;;;10518909;28;20070;-63
2022/12/29 03:04:56;;;;;;;2.13;1.77;;;10.20;99.90;;;;;;10511589;28;20065;-63
2022/12/29 03:10:24;;;;;;;1.92;1.40;;;10.20;99.90;;;;;;10508510;28;20085;-64
2022/12/29 03:21:14;;;;;;;1.48;1.38;;;10.20;99.90;;;;;;10513004;28;20500;-64
2022/12/29 03:26:18;;;;;;;2.65;1.38;;;10.20;99.90;;;;;;10512115;28;20522;-63
2022/12/29 03:31:21;;;;;;;1.60;1.33;;;10.20;99.90;;;;;;10518526;28;20294;-64
2022/12/29 03:36:38;;;;;;;2.00;1.30;;;10.20;99.90;;;;;;10504351;28;20126;-63
2022/12/29 03:41:42;;;;;;;1.50;1.10;;;10.20;99.90;;;;;;10508002;28;20028;-63
2022/12/29 03:46:43;;;;;;;1.67;1.30;;;10.20;99.90;;;;;;10507742;28;20020;-64
2022/12/29 03:51:44;;;;;;;1.63;1.25;;;10.20;99.90;;;;;;10522132;28;20277;-63
2022/12/29 03:56:45;;;;;;;2.00;1.20;;;10.20;99.90;;;;;;10517097;28;20078;-63
2022/12/29 04:01:46;;;;;;;1.65;1.17;;;10.20;99.90;;;;;;10517669;28;20020;-63
2022/12/29 04:06:46;;;;;;;1.45;0.95;;;10.20;99.90;;;;;;10514932;28;20012;-63
2022/12/29 04:11:47;;;;;;;1.73;1.10;;;10.20;99.90;;;;;;10517567;28;20032;-63
2022/12/29 04:16:48;;;;;;;2.95;1.38;;;10.20;99.90;;;;;;10515048;28;20231;-63
2022/12/29 04:21:50;;;;;;;1.83;1.10;;;10.20;99.90;;;;;;10513077;28;20084;-63
2022/12/29 04:26:51;;;;;;;1.15;0.90;;;10.20;99.90;;;;;;10525465;28;20069;-63
2022/12/29 04:31:51;;;;;;;1.40;1.00;;;10.20;99.90;;;;;;10523132;28;20044;-64
2022/12/29 04:36:52;;;;;;;1.42;1.10;;;10.20;99.90;;;;;;10525006;28;20020;-63
2022/12/29 04:41:52;;;;;;;1.17;0.90;;;10.90;99.90;;;;;;10512187;28;20519;-64
2022/12/29 04:46:53;;;;;;;1.23;0.88;;;10.20;99.90;;;;;;10521941;28;20482;-64
2022/12/29 04:51:54;;;;;;;2.33;1.23;;;10.20;99.90;;;;;;10508018;28;20066;-63
2022/12/29 04:56:54;;;;;;;1.33;0.93;;;10.20;99.90;;;;;;10520392;28;20020;-63
2022/12/29 05:01:55;;;;;;;1.67;1.08;;;10.20;99.90;;;;;;10507453;28;20369;-64
2022/12/29 05:06:55;;;;;;;1.27;1.13;;;10.20;99.90;;;;;;10506091;28;20168;-63
2022/12/29 05:11:56;;;;;;;1.50;0.90;;;10.20;99.90;;;;;;10516668;28;20016;-63
2022/12/29 05:16:56;;;;;;;3.00;1.85;;;10.20;99.90;;;;;;10509231;28;20472;-63
2022/12/29 05:21:57;;;;;;;1.75;0.90;;;10.20;99.90;;;;;;10510308;28;20089;-63
2022/12/29 05:26:58;;;;;;;2.20;0.98;;;10.20;99.90;;;;;;10507649;28;20025;-63
2022/12/29 05:31:58;;;;;;;2.03;1.27;;;10.20;99.90;;;;;;10510619;28;20036;-63
2022/12/29 05:36:59;;;;;;;2.65;1.00;;;10.20;99.90;;;;;;10523662;28;20019;-63
2022/12/29 05:42:00;;;;;;;1.50;0.93;;;10.20;99.90;;;;;;10522225;28;20140;-63
2022/12/29 05:47:00;;;;;;;1.85;1.00;;;10.20;99.90;;;;;;10514996;28;20020;-64
2022/12/29 05:52:01;;;;;;;0.90;0.70;;;10.20;99.90;;;;;;10516262;28;20028;-63
2022/12/29 05:57:01;;;;;;;1.92;1.00;;;10.20;99.90;;;;;;10520152;28;20022;-63
2022/12/29 06:02:02;;;;;;;1.75;0.90;;;10.20;99.90;;;;;;10519188;28;20487;-64
2022/12/29 06:07:03;;;;;;;0.90;0.75;;;10.20;99.90;;;;;;10521787;28;20508;-64
2022/12/29 06:12:04;;;;;;;2.40;0.90;;;10.10;99.90;;;;;;10513111;28;20086;-63
2022/12/29 06:17:04;;;;;;;1.27;0.70;;;10.20;99.90;;;;;;10515129;28;20430;-63
2022/12/29 06:22:05;;;;;;;2.42;0.93;;;10.20;99.90;;;;;;10509742;28;20119;-63
2022/12/29 06:27:06;;;;;;;2.63;0.55;;;10.20;99.90;;;;;;10501320;28;20523;-64
2022/12/29 06:32:07;;;;;;;2.55;0.82;;;10.20;99.90;;;;;;10511329;28;20131;-63
2022/12/29 06:37:08;;;;;;;1.40;1.08;;;10.10;99.90;;;;;;10517742;28;20027;-63
2022/12/29 06:42:09;;;;;;;2.17;1.13;;;10.20;99.90;;;;;;10516969;28;20028;-63
2022/12/29 06:47:09;;;;;;;2.08;1.02;;;10.20;99.90;;;;;;10509410;28;20105;-63
2022/12/29 06:52:10;;;;;;;2.15;0.80;;;10.10;99.90;;;;;;10512738;28;20032;-63
2022/12/29 06:57:11;;;;;;;4.10;1.80;;;10.10;99.90;;;;;;10512198;28;20023;-63
2022/12/29 07:02:13;;;;;;;1.33;0.70;;;10.10;99.90;;;;;;10501933;28;20028;-63
2022/12/29 07:07:13;;;;;;;4.60;1.17;;;10.10;99.90;;;;;;10509347;28;20024;-62
2022/12/29 07:12:14;;;;;;;2.85;0.80;;;10.20;99.90;;;;;;10517631;28;20392;-63
2022/12/29 07:17:15;;;;;;;2.03;0.75;;;10.10;99.90;;;;;;10504680;28;20057;-63
2022/12/29 07:22:16;;;;;;;1.90;0.60;;;10.10;99.90;;;;;;10511834;28;20115;-63
2022/12/29 07:27:17;;;;;;;2.25;0.70;;;10.10;99.90;;;;;;10512793;28;20393;-63
2022/12/29 07:32:17;;;;;;;2.78;0.70;;;10.10;99.90;;;;;;10517913;28;20036;-63
2022/12/29 07:37:18;;;;;;;2.55;0.90;;;10.10;99.90;;;;;;10509281;28;20271;-62
2022/12/29 07:42:18;;;;;;;3.33;0.68;;;10.10;99.90;;;;;;10509107;28;20536;-62
2022/12/29 07:47:19;;;;;;;1.88;0.60;;;10.10;99.90;;;;;;10505781;28;20024;-62
2022/12/29 07:52:20;;;;;;;3.90;1.15;;;10.10;99.90;;;;;;10506007;28;20563;-62
2022/12/29 07:57:20;;;;;;;1.77;0.80;;;10.10;99.90;;;;;;10508138;28;20477;-62
2022/12/29 08:02:21;;;;;;;3.03;0.73;;;10.10;99.90;;;;;;10516538;28;20058;-62
2022/12/29 08:07:21;;;;;;;5.65;0.98;;;10.10;99.90;;;;;;10513166;28;20020;-62
2022/12/29 08:12:22;;;;;;;7.40;1.00;;;10.10;99.90;;;;;;10513191;28;20036;-62
2022/12/29 08:17:23;;;;;;;3.53;1.10;;;10.10;99.90;;;;;;10497288;28;20021;-63
2022/12/29 08:22:24;;;;;;;1.67;0.60;;;10.10;99.90;;;;;;10501597;28;20024;-62
2022/12/29 08:27:25;;;;;;;2.58;0.77;;;10.20;99.90;;;;;;10509879;28;20028;-62
2022/12/29 08:32:28;;;;;;;6.53;1.63;;;10.20;99.90;;;;;;10512005;28;20032;-62
2022/12/29 08:37:28;;;;;;;4.97;0.98;;;10.20;99.90;;;;;;10523257;28;20020;-62
2022/12/29 08:42:30;;;;;;;6.28;0.90;;;10.20;99.90;;;;;;10527414;28;20464;-62
2022/12/29 08:47:31;;;;;;;2.38;1.35;;;10.20;99.90;;;;;;10524696;28;20384;-62
2022/12/29 08:52:32;;;;;;;3.67;1.17;;;10.20;99.90;;;;;;10512906;28;20020;-62
2022/12/29 08:57:32;;;;;;;6.47;1.58;;;10.30;99.90;;;;;;10524047;28;20027;-63
2022/12/29 09:02:33;;;;;;;6.03;0.90;;;10.20;99.90;;;;;;10519944;28;20104;-63
2022/12/29 09:07:34;;;;;;;5.10;1.15;;;10.30;99.90;;;;;;10516070;28;20027;-63
2022/12/29 09:12:34;;;;;;;5.97;1.00;;;10.50;99.90;;;;;;10521062;28;20387;-63
2022/12/29 09:17:42;;;;;;;4.63;1.02;;;10.30;99.90;;;;;;10519564;28;20039;-61
2022/12/29 09:22:44;;;;;;;2.67;1.17;;;10.30;99.90;;;;;;10518512;28;20024;-65
2022/12/29 09:27:44;;;;;;;3.67;0.95;;;10.30;99.90;;;;;;10520761;28;20313;-65
2022/12/29 09:32:46;;;;;;;6.00;1.15;;;10.30;99.90;;;;;;10526140;28;20039;-64
2022/12/29 09:37:46;;;;;;;5.03;1.00;;;10.30;99.90;;;;;;10522671;28;20028;-63
2022/12/29 09:43:05;;;;;;;7.47;1.45;;;10.20;99.90;;;;;;10523378;28;20257;-65
2022/12/29 09:48:15;;;;;;;2.42;1.02;;;10.20;99.90;;;;;;10523017;28;20028;-63
2022/12/29 09:53:39;;;;;;;4.28;1.02;;;10.20;99.90;;;;;;10515158;28;20026;-66
2022/12/29 09:58:44;;;;;;;5.97;1.40;;;10.20;99.90;;;;;;10525948;28;20024;-64
2022/12/29 10:03:53;;;;;;;4.50;1.17;;;10.20;99.90;;;;;;10515179;28;20020;-63
2022/12/29 10:09:02;;;;;;;3.08;0.98;;;10.20;99.90;;;;;;10515130;28;20016;-62
2022/12/29 10:14:50;;;;;;;5.05;1.38;;;10.20;99.90;;;;;;10514525;28;20032;-63
2022/12/29 10:20:22;;;;;;;6.72;1.00;;;10.20;99.90;;;;;;10419870;28;20028;-65
2022/12/29 10:25:25;;;;;;;2.97;1.20;;;10.20;99.90;;;;;;10458767;28;20090;-65
2022/12/29 10:30:26;;;;;;;7.18;1.88;;;10.20;99.90;;;;;;10515061;28;20036;-64
2022/12/29 10:35:33;;;;;;;2.42;0.82;;;10.30;99.90;;;;;;10513082;28;20016;-65
2022/12/29 10:40:43;;;;;;;3.58;1.25;;;10.30;99.90;;;;;;10516430;28;20548;-65
2022/12/29 10:45:44;;;;;;;3.72;1.10;;;10.30;99.90;;;;;;10515375;28;20024;-64
2022/12/29 10:50:44;;;;;;;6.18;1.02;;;10.30;99.90;;;;;;10519474;28;20035;-63
2022/12/29 10:55:46;;;;;;;2.05;0.90;;;10.30;99.90;;;;;;10516781;28;20400;-64
2022/12/29 11:00:51;;;;;;;3.53;1.15;;;10.30;99.90;;;;;;10513515;28;20039;-65
2022/12/29 11:06:02;;;;;;;6.95;1.40;;;10.30;99.90;;;;;;10513170;28;20024;-64
2022/12/29 11:11:08;;;;;;;2.50;1.08;;;10.30;99.90;;;;;;10517711;28;20122;-64
2022/12/29 11:16:12;;;;;;;5.65;1.10;;;10.30;99.90;;;;;;10510130;28;20169;-63
2022/12/29 11:21:39;;;;;;;2.67;0.88;;;10.50;99.90;;;;;;10515949;28;20085;-64
2022/12/29 11:26:44;;;;;;;4.40;1.40;;;10.30;99.90;;;;;;10514324;28;20028;-65
2022/12/29 11:31:57;;;;;;;5.57;0.98;;;10.30;99.90;;;;;;10508571;28;20055;-64
2022/12/29 11:37:13;;;;;;;3.72;1.00;;;10.30;99.90;;;;;;10522489;28;20270;-65
2022/12/29 11:42:16;;;;;;;5.47;1.23;;;10.30;99.90;;;;;;10517841;28;20089;-64
2022/12/29 11:47:45;;;;;;;2.25;0.90;;;10.30;99.90;;;;;;10516061;28;20031;-65
2022/12/29 11:52:50;;;;;;;3.22;1.05;;;10.30;99.90;;;;;;10512307;28;20116;-65
2022/12/29 11:57:52;;;;;;;1.75;0.90;;;10.30;99.90;;;;;;10514013;28;20127;-65
2022/12/29 12:02:56;;;;;;;5.07;1.00;;;10.40;99.90;;;;;;10517259;28;20039;-65
2022/12/29 12:08:09;;;;;;;3.67;0.95;;;10.40;99.90;;;;;;10508428;28;20032;-65
2022/12/29 12:13:19;;;;;;;2.35;0.93;;;10.40;99.90;;;;;;10520875;28;20038;-64
2022/12/29 12:18:37;;;;;;;2.88;0.93;;;10.30;99.90;;;;;;10524090;28;20034;-64
2022/12/29 12:24:02;;;;;;;3.97;1.15;;;10.30;99.90;;;;;;10518734;28;20016;-65
2022/12/29 12:29:24;;;;;;;3.40;1.00;;;10.30;99.90;;;;;;10518189;28;20404;-65
2022/12/29 12:34:37;;;;;;;3.63;0.80;;;10.30;99.90;;;;;;10519878;28;20008;-64
2022/12/29 12:39:59;;;;;;;3.58;1.10;;;10.30;99.90;;;;;;10520815;28;20476;-63
2022/12/29 12:45:29;;;;;;;2.30;1.02;;;10.40;99.90;;;;;;10524952;28;20036;-63
2022/12/29 12:51:10;;;;;;;3.15;1.20;;;10.40;99.90;;;;;;10507940;28;20472;-63
2022/12/29 12:56:22;;;;;;;3.03;1.08;;;10.40;99.90;;;;;;10510003;28;20016;-63
2022/12/29 13:01:53;;;;;;;3.45;1.00;;;10.30;99.90;;;;;;10524066;28;20024;-64
2022/12/29 13:07:01;;;;;;;4.50;1.15;;;10.30;99.90;;;;;;10517315;28;20359;-64
2022/12/29 13:12:36;;;;;;;3.07;1.13;;;10.40;99.90;;;;;;10524836;28;20085;-64
2022/12/29 13:17:51;;;;;;;4.63;1.27;;;10.40;99.90;;;;;;10515277;28;20016;-64
2022/12/29 13:23:10;;;;;;;4.63;1.13;;;10.40;99.90;;;;;;10523562;28;20024;-65
2022/12/29 13:28:17;;;;;;;2.55;0.98;;;10.40;99.90;;;;;;10516431;28;20036;-64
2022/12/29 13:33:38;;;;;;;3.15;1.00;;;10.40;99.90;;;;;;10512370;28;20105;-64
2022/12/29 13:38:46;;;;;;;5.80;1.73;;;10.40;99.90;;;;;;10523952;28;20107;-64
2022/12/29 13:43:47;;;;;;;6.27;0.93;;;10.40;99.90;;;;;;10520741;28;20553;-64
2022/12/29 13:48:55;;;;;;;7.05;1.60;;;10.40;99.90;;;;;;10514850;28;20324;-63
2022/12/29 13:54:05;;;;;;;5.50;1.00;;;10.40;99.90;;;;;;10518506;28;20051;-63
2022/12/29 13:59:26;;;;;;;3.83;1.00;;;10.40;99.90;;;;;;10516508;28;20036;-63
2022/12/29 14:04:29;;;;;;;6.30;1.20;;;10.40;99.90;;;;;;10509428;28;20081;-62
2022/12/29 14:09:46;;;;;;;7.43;1.10;;;10.40;99.90;;;;;;10514099;28;20097;-63
2022/12/29 14:14:46;;;;;;;3.83;1.00;;;10.40;99.90;;;;;;10516853;28;20026;-63
2022/12/29 14:19:53;;;;;;;3.53;1.00;;;10.40;99.90;;;;;;10514195;28;20368;-63
2022/12/29 14:24:54;;;;;;;5.45;1.02;;;10.40;99.90;;;;;;10512244;28;20467;-62
2022/12/29 14:29:55;;;;;;;2.25;0.90;;;10.40;99.90;;;;;;10514375;28;20036;-62
2022/12/29 14:34:57;;;;;;;6.63;1.40;;;10.40;99.90;;;;;;10520102;28;20027;-62
2022/12/29 14:40:22;;;;;;;12.07;1.90;;;10.40;99.90;;;;;;10515469;28;20431;-62
2022/12/29 14:45:29;;;;;;;4.30;1.35;;;10.40;99.90;;;;;;10506603;28;20052;-63
2022/12/29 14:50:33;;;;;;;3.17;1.00;;;10.50;99.90;;;;;;10517887;28;20046;-62
2022/12/29 14:55:46;;;;;;;5.70;1.35;;;10.40;99.90;;;;;;10517131;28;20028;-63
2022/12/29 15:00:47;;;;;;;4.57;2.17;;;10.40;99.90;;;;;;10519511;28;20027;-64
2022/12/29 15:06:03;;;;;;;5.93;1.65;;;10.40;99.90;;;;;;10512925;28;20022;-63
2022/12/29 15:11:09;;;;;;;6.05;1.45;;;10.30;99.90;;;;;;10516713;28;20403;-63
2022/12/29 15:16:33;;;;;;;2.92;1.20;;;10.30;99.90;;;;;;10516827;28;20020;-61
2022/12/29 15:21:35;;;;;;;6.03;1.52;;;10.30;99.90;;;;;;10510114;28;20426;-61
2022/12/29 15:26:39;;;;;;;5.75;1.70;;;10.30;99.90;;;;;;10515914;28;20044;-61
2022/12/29 15:31:48;;;;;;;5.40;1.50;;;10.30;99.90;;;;;;10516242;28;20040;-61
2022/12/29 15:36:50;;;;;;;9.45;1.42;;;10.30;99.90;;;;;;10519448;28;20103;-62
2022/12/29 15:41:59;;;;;;;6.00;1.83;;;10.30;99.90;;;;;;10521944;28;20028;-60
2022/12/29 15:47:05;;;;;;;2.95;0.90;;;10.30;99.90;;;;;;10523378;28;20029;-61
2022/12/29 15:52:08;;;;;;;4.68;1.65;;;10.30;99.90;;;;;;10521861;28;20062;-62
2022/12/29 15:57:24;;;;;;;3.78;1.33;;;10.30;99.90;;;;;;10522068;28;20308;-62
2022/12/29 16:02:25;;;;;;;3.70;1.33;;;10.30;99.90;;;;;;10519471;28;20024;-61
2022/12/29 16:07:31;;;;;;;7.18;1.50;;;10.30;99.90;;;;;;10528685;28;20032;-62
2022/12/29 16:12:35;;;;;;;5.88;1.00;;;10.20;99.90;;;;;;10521437;28;20039;-62
2022/12/29 16:17:50;;;;;;;4.22;1.20;;;10.20;99.90;;;;;;10524384;28;20023;-63
2022/12/29 16:22:57;;;;;;;5.45;1.67;;;10.20;99.90;;;;;;10523742;28;20456;-62
2022/12/29 16:27:59;;;;;;;5.30;1.50;;;10.20;99.90;;;;;;10527728;28;20024;-62
2022/12/29 16:33:03;;;;;;;5.30;1.35;;;10.20;99.90;;;;;;10517481;28;20111;-62
2022/12/29 16:38:15;;;;;;;3.38;1.10;;;10.20;99.90;;;;;;10512966;28;20036;-62
2022/12/29 16:43:41;;;;;;;5.82;1.40;;;10.10;99.90;;;;;;10528307;28;20039;-63
2022/12/29 16:48:51;;;;;;;6.60;1.65;;;10.20;99.90;;;;;;10526871;28;20692;-62
2022/12/29 16:53:54;;;;;;;7.20;1.52;;;10.20;99.90;;;;;;10522718;28;20069;-63
2022/12/29 16:59:08;;;;;;;2.38;0.88;;;10.20;99.90;;;;;;10524927;28;20032;-62
2022/12/29 17:04:11;;;;;;;4.80;1.38;;;10.20;99.90;;;;;;10529116;28;20013;-61
2022/12/29 17:09:20;;;;;;;3.05;1.20;;;10.10;99.90;;;;;;10521283;28;20035;-65
2022/12/29 17:14:31;;;;;;;7.40;1.42;;;10.10;99.90;;;;;;10523360;28;20020;-64
2022/12/29 17:19:34;;;;;;;5.30;1.30;;;10.10;99.90;;;;;;10524669;28;20028;-63
2022/12/29 17:24:36;;;;;;;3.95;1.48;;;10.40;99.90;;;;;;10517554;28;20016;-63
2022/12/29 17:29:39;;;;;;;1.83;1.30;;;10.10;99.90;;;;;;10527060;28;20036;-64
2022/12/29 17:34:40;;;;;;;3.35;0.98;;;10.10;99.90;;;;;;10532016;28;20289;-64
2022/12/29 17:39:41;;;;;;;3.58;1.45;;;10.10;99.90;;;;;;10526295;28;20430;-64
2022/12/29 17:44:42;;;;;;;6.22;1.65;;;9.80;99.90;;;;;;10519383;28;20078;-64
2022/12/29 17:49:46;;;;;;;4.47;1.58;;;10.10;99.90;;;;;;10526295;28;20032;-64
2022/12/29 17:54:50;;;;;;;3.33;1.42;;;10.10;99.90;;;;;;10510322;28;20017;-64
2022/12/29 17:59:51;;;;;;;8.00;1.60;;;10.10;99.90;;;;;;10522565;28;20020;-64
2022/12/29 18:04:52;;;;;;;2.95;1.35;;;10.10;99.90;;;;;;10506478;28;20357;-65
2022/12/29 18:09:53;;;;;;;5.97;1.90;;;10.10;99.90;;;;;;10508230;28;20032;-64
2022/12/29 18:14:54;;;;;;;3.42;1.65;;;10.10;99.90;;;;;;10506281;28;20024;-65
2022/12/29 18:19:55;;;;;;;7.72;2.20;;;10.10;99.90;;;;;;10507347;28;20131;-63
2022/12/29 18:24:55;;;;;;;3.53;1.60;;;10.10;99.90;;;;;;10494968;28;20021;-64
2022/12/29 18:29:56;;;;;;;3.83;1.85;;;10.10;99.90;;;;;;10506247;28;20392;-64
2022/12/29 18:34:56;;;;;;;4.03;1.20;;;10.10;99.90;;;;;;10511503;28;20020;-64
2022/12/29 18:39:58;;;;;;;6.53;1.70;;;10.00;99.90;;;;;;10503422;28;20078;-63
2022/12/29 18:44:58;;;;;;;4.18;1.40;;;10.00;99.90;;;;;;10511635;28;20083;-63
2022/12/29 18:49:59;;;;;;;5.68;1.60;;;10.00;99.90;;;;;;10508089;28;20120;-63
2022/12/29 18:54:59;;;;;;;1.83;1.23;;;10.00;99.90;;;;;;10506200;28;20017;-64
2022/12/29 19:00:00;;;;;;;2.35;1.50;;;10.00;99.90;;;;;;10506571;28;20115;-62
2022/12/29 19:05:01;;;;;;;2.80;1.60;;;10.00;99.90;;;;;;10502961;28;20477;-64
2022/12/29 19:10:01;;;;;;;2.22;1.30;;;10.00;99.90;;;;;;10522898;28;20504;-64
2022/12/29 19:15:06;;;;;;;6.53;1.70;;;10.00;99.90;;;;;;10519278;28;20016;-64
2022/12/29 19:20:20;;;;;;;3.20;1.25;;;9.90;99.90;;;;;;10520647;28;20027;-65
2022/12/29 19:25:21;;;;;;;5.45;1.25;;;10.00;99.90;;;;;;10515542;28;20054;-64
2022/12/29 19:30:22;;;;;;;2.55;1.58;;;9.90;99.90;;;;;;10506272;28;20036;-64
2022/12/29 19:35:26;;;;;;;3.80;1.60;;;9.90;99.90;;;;;;10518671;28;20435;-64
2022/12/29 19:40:28;;;;;;;4.72;1.30;;;9.90;99.90;;;;;;10518486;28;20489;-63
2022/12/29 19:45:28;;;;;;;7.03;1.40;;;9.90;99.90;;;;;;10515094;28;20012;-63
2022/12/29 19:50:29;;;;;;;5.22;1.70;;;9.90;99.90;;;;;;10514897;28;20412;-64
2022/12/29 19:55:29;;;;;;;4.50;1.30;;;9.90;99.90;;;;;;10505963;28;20018;-64
2022/12/29 20:00:30;;;;;;;5.28;1.58;;;9.90;99.90;;;;;;10518824;28;20037;-64
2022/12/29 20:05:31;;;;;;;3.83;1.42;;;9.90;99.90;;;;;;10523371;28;20485;-64
2022/12/29 20:10:32;;;;;;;2.72;1.48;;;9.80;99.90;;;;;;10504483;28;20246;-65
2022/12/29 20:15:32;;;;;;;5.60;1.33;;;9.80;99.90;;;;;;10503115;28;20097;-63
2022/12/29 20:20:33;;;;;;;2.83;1.17;;;9.80;99.90;;;;;;10511095;28;20615;-63
2022/12/29 20:25:34;;;;;;;4.88;1.45;;;9.80;99.90;;;;;;10501141;28;20035;-63
2022/12/29 20:30:35;;;;;;;2.85;1.20;;;9.80;99.90;;;;;;10504178;28;20694;-63
2022/12/29 20:35:36;;;;;;;3.58;1.20;;;9.80;99.90;;;;;;10507732;28;20020;-64
2022/12/29 20:40:37;;;;;;;3.47;1.38;;;9.80;99.90;;;;;;10516965;28;20495;-64
2022/12/29 20:45:38;;;;;;;4.80;1.73;;;9.80;99.90;;;;;;10511709;28;20105;-63
2022/12/29 20:50:39;;;;;;;4.00;1.73;;;10.70;99.90;;;;;;10518671;28;20032;-64
2022/12/29 20:55:39;;;;;;;3.85;1.08;;;9.70;99.90;;;;;;10516580;28;20077;-65
2022/12/29 21:00:40;;;;;;;4.63;1.40;;;9.70;99.90;;;;;;10519212;28;20634;-65
2022/12/29 21:05:41;;;;;;;4.85;1.55;;;9.70;99.90;;;;;;10524054;28;20027;-65
2022/12/29 21:10:46;;;;;;;4.68;1.13;;;9.70;99.90;;;;;;10522389;28;20028;-66
2022/12/29 21:15:47;;;;;;;4.63;1.23;;;9.70;99.90;;;;;;10527133;28;20487;-64
2022/12/29 21:21:01;;;;;;;4.32;1.50;;;9.70;99.90;;;;;;10522694;28;20013;-65
2022/12/29 21:26:06;;;;;;;4.82;1.02;;;9.60;99.90;;;;;;10522667;28;20024;-65
2022/12/29 21:31:14;;;;;;;3.35;1.10;;;9.60;99.90;;;;;;10520153;28;20537;-65
2022/12/29 21:36:15;;;;;;;3.88;1.00;;;9.60;99.90;;;;;;10511900;28;20031;-65
2022/12/29 21:41:16;;;;;;;2.00;0.98;;;9.60;99.90;;;;;;10523637;28;20032;-65
2022/12/29 21:46:17;;;;;;;5.20;1.23;;;9.60;99.90;;;;;;10516171;28;20099;-65
2022/12/29 21:56:36;;;;;;;3.53;1.20;;;9.60;99.90;;;;;;10512723;28;20020;-65
2022/12/29 22:17:35;;;;;;;3.10;1.40;;;9.60;99.90;;;;;;10515367;28;20455;-64
2022/12/29 22:22:36;;;;;;;3.38;1.58;;;9.60;99.90;;;;;;10513664;28;20017;-65
2022/12/29 22:27:36;;;;;;;6.38;1.38;;;9.60;99.90;;;;;;10522351;28;20031;-64
2022/12/29 22:32:37;;;;;;;6.32;1.83;;;9.60;99.90;;;;;;10520821;28;20123;-64
2022/12/29 22:37:40;;;;;;;3.60;1.20;;;9.60;99.90;;;;;;10518888;28;20070;-64
2022/12/29 22:42:41;;;;;;;2.45;1.27;;;9.60;99.90;;;;;;10518203;28;20380;-64
2022/12/29 22:47:41;;;;;;;8.02;1.30;;;9.60;99.90;;;;;;10512655;28;20032;-65
2022/12/29 22:52:42;;;;;;;4.63;1.45;;;9.60;99.90;;;;;;10519833;28;20031;-64
2022/12/29 22:57:42;;;;;;;2.53;1.25;;;9.50;99.90;;;;;;10512543;28;20097;-64
2022/12/29 23:02:43;;;;;;;5.25;1.42;;;9.60;99.90;;;;;;10512314;28;21075;-65
2022/12/29 23:07:44;;;;;;;6.30;1.75;;;9.50;99.90;;;;;;10499076;28;20392;-65
2022/12/29 23:12:45;;;;;;;4.40;1.58;;;9.50;99.90;;;;;;10494346;28;20111;-64
2022/12/29 23:17:47;;;;;;;5.07;1.58;;;9.50;99.90;;;;;;10494996;28;20044;-65
2022/12/29 23:22:47;;;;;;;4.97;1.50;;;9.50;99.90;;;;;;10524408;28;20341;-64
2022/12/29 23:27:48;;;;;;;5.53;1.70;;;9.50;99.90;;;;;;10507511;28;20415;-64
2022/12/29 23:32:48;;;;;;;3.75;1.33;;;9.50;99.90;;;;;;10519982;28;20038;-64
2022/12/29 23:37:49;;;;;;;5.30;1.20;;;9.50;99.90;;;;;;10513497;28;20480;-65
2022/12/29 23:42:50;;;;;;;5.85;2.08;;;9.40;99.90;;;;;;10512475;28;20020;-65
2022/12/29 23:47:50;;;;;;;3.95;1.05;;;9.50;99.90;;;;;;10522818;28;20029;-65
2022/12/29 23:52:51;;;;;;;3.90;1.20;;;9.40;99.90;;;;;;10525642;28;20271;-64
2022/12/29 23:57:54;;;;;;;6.13;1.50;;;9.40;99.90;;;;;;10522663;28;20024;-65
